Time;durP1;ratioP1;P1;durP2;ratioP2;P2;SDS_P1;SDS_P2;PMS_P1;PMS_P2;Temp;Humidity;BMP_temperature;BMP_pressure;BME280_temperature;BME280_humidity;BME280_pressure;Samples;Min_cycle;Max_cycle;Signal;HPM_P1;HPM_P2
2021/12/21 00:01:21;;;;;;;18.15;7.87;;;;;;;1.79;55.48;100342.00;7616615;32;36947;-76
2021/12/21 00:05:38;;;;;;;8.45;5.03;;;;;;;1.60;56.08;100345.44;7629855;32;39015;-76
2021/12/21 00:09:54;;;;;;;7.70;4.30;;;;;;;1.80;55.45;100340.16;7629692;32;40209;-76
2021/12/21 00:14:36;;;;;;;7.35;4.55;;;;;;;1.77;54.89;100345.94;7629532;32;38632;-76
2021/12/21 00:19:24;;;;;;;4.97;4.30;;;;;;;1.83;54.15;100358.59;7629568;32;37032;-76
2021/12/21 00:23:49;;;;;;;7.43;3.95;;;;;;;1.70;53.80;100364.72;7632213;32;39303;-76
2021/12/21 00:28:06;;;;;;;11.35;5.78;;;;;;;1.82;53.60;100364.97;7633303;32;40062;-76
2021/12/21 00:32:23;;;;;;;7.85;4.00;;;;;;;1.81;53.30;100364.16;7632839;32;37904;-76
2021/12/21 00:36:39;;;;;;;6.35;4.10;;;;;;;1.46;53.98;100369.53;7633260;32;37730;-76
2021/12/21 00:40:57;;;;;;;4.28;3.53;;;;;;;1.45;53.34;100359.84;7633268;32;39497;-76
2021/12/21 00:45:13;;;;;;;4.93;3.80;;;;;;;1.25;53.76;100359.72;7633126;32;41047;-75
2021/12/21 00:49:30;;;;;;;5.75;3.95;;;;;;;1.23;53.25;100361.78;7633005;32;37554;-76
2021/12/21 00:53:46;;;;;;;7.10;4.12;;;;;;;1.23;52.92;100367.13;7633185;32;38135;-76
2021/12/21 00:58:03;;;;;;;3.95;3.60;;;;;;;1.16;52.68;100374.31;7633029;32;39501;-76
2021/12/21 01:02:19;;;;;;;4.62;3.97;;;;;;;1.10;52.56;100378.63;7633064;32;40862;-76
2021/12/21 01:11:15;;;;;;;4.30;3.60;;;;;;;1.12;51.04;100391.84;7632983;32;37769;-76
2021/12/21 01:16:02;;;;;;;4.07;3.60;;;;;;;1.13;50.47;100394.34;7622043;32;37673;-75
2021/12/21 01:20:24;;;;;;;5.45;3.87;;;;;;;1.19;50.03;100418.75;7632204;32;39827;-76
2021/12/21 01:29:29;;;;;;;5.35;3.47;;;;;;;1.19;49.42;100421.44;7632529;32;37818;-76
2021/12/21 01:38:36;;;;;;;4.10;3.65;;;;;;;0.95;49.34;100450.37;7632496;32;40391;-77
2021/12/21 01:43:06;;;;;;;4.72;3.53;;;;;;;1.09;48.78;100449.47;7632480;32;37847;-76
2021/12/21 01:51:57;;;;;;;4.28;3.83;;;;;;;0.82;49.72;100463.69;7632480;32;40121;-76
2021/12/21 01:56:14;;;;;;;4.32;3.58;;;;;;;0.99;49.98;100461.56;7632301;32;40808;-77
2021/12/21 02:00:31;;;;;;;5.53;3.83;;;;;;;1.01;50.08;100459.50;7618768;32;38729;-76
2021/12/21 02:04:47;;;;;;;3.53;3.25;;;;;;;1.25;48.96;100466.34;7632340;32;37590;-76
2021/12/21 02:09:03;;;;;;;3.60;3.30;;;;;;;1.18;49.09;100468.13;7632276;32;39573;-77
2021/12/21 02:13:20;;;;;;;5.30;3.53;;;;;;;1.24;48.77;100460.16;7632172;32;39903;-76
2021/12/21 02:21:56;;;;;;;3.67;3.30;;;;;;;1.26;48.60;100467.97;7632111;32;37356;-77
2021/12/21 02:26:34;;;;;;;5.68;3.80;;;;;;;1.17;48.80;100464.59;7632090;32;39639;-77
2021/12/21 02:30:54;;;;;;;5.35;3.55;;;;;;;1.18;48.81;100460.09;7631806;32;40136;-76
2021/12/21 02:35:10;;;;;;;3.92;3.60;;;;;;;0.82;48.85;100455.62;7618702;32;37992;-77
2021/12/21 02:39:27;;;;;;;3.40;3.10;;;;;;;1.00;48.57;100447.09;7631757;32;37131;-76
2021/12/21 02:43:43;;;;;;;5.85;3.50;;;;;;;0.84;48.70;100459.75;7631330;32;39415;-76
2021/12/21 02:47:59;;;;;;;3.67;3.37;;;;;;;0.98;48.30;100459.91;7631707;32;39984;-78
2021/12/21 02:52:15;;;;;;;3.70;3.40;;;;;;;0.86;48.15;100468.47;7618028;32;38450;-77
2021/12/21 02:56:32;;;;;;;3.42;3.12;;;;;;;0.77;48.58;100474.16;7631568;32;37766;-77
2021/12/21 03:00:48;;;;;;;4.53;3.42;;;;;;;0.80;48.36;100484.50;7631317;32;40194;-76
2021/12/21 03:05:05;;;;;;;4.95;3.42;;;;;;;0.63;48.81;100490.09;7631315;32;40076;-76
2021/12/21 03:18:15;;;;;;;3.37;3.05;;;;;;;0.53;48.75;100479.66;7631037;32;40278;-76
2021/12/21 03:22:31;;;;;;;5.60;3.67;;;;;;;0.78;48.00;100483.84;7630969;32;40601;-77
2021/12/21 03:26:47;;;;;;;3.78;3.33;;;;;;;0.58;48.47;100481.78;7630794;32;37562;-76
2021/12/21 03:31:04;;;;;;;3.80;3.50;;;;;;;0.41;49.72;100493.75;7630592;32;36746;-77
2021/12/21 03:35:20;;;;;;;3.75;3.45;;;;;;;0.51;48.83;100497.00;7630632;32;39502;-77
2021/12/21 03:39:36;;;;;;;4.55;3.60;;;;;;;0.56;48.47;100497.25;7630361;32;40835;-76
2021/12/21 03:43:52;;;;;;;3.97;3.58;;;;;;;0.32;49.10;100499.22;7630192;32;38801;-75
2021/12/21 03:48:13;;;;;;;3.85;3.50;;;;;;;0.49;48.73;100504.41;7630432;32;37241;-75
2021/12/21 03:52:30;;;;;;;4.28;3.87;;;;;;;0.43;48.82;100516.72;7617446;32;39377;-77
2021/12/21 03:56:49;;;;;;;3.87;3.42;;;;;;;0.39;48.89;100519.97;7605251;32;40807;-77
2021/12/21 04:01:05;;;;;;;4.70;3.67;;;;;;;0.43;49.26;100529.28;7633622;32;38101;-78
2021/12/21 04:05:21;;;;;;;4.28;3.87;;;;;;;0.31;49.58;100536.97;7633686;32;36837;-77
2021/12/21 04:09:37;;;;;;;3.55;3.25;;;;;;;0.31;49.85;100535.13;7633646;32;39023;-77
2021/12/21 04:13:54;;;;;;;5.35;3.67;;;;;;;-0.11;50.06;100531.22;7633459;32;40739;-77
2021/12/21 04:18:13;;;;;;;3.45;3.15;;;;;;;0.09;49.80;100544.94;7633427;32;38805;-76
2021/12/21 04:22:30;;;;;;;5.10;3.70;;;;;;;-0.04;49.61;100552.78;7633483;32;37105;-76
2021/12/21 04:26:47;;;;;;;3.53;3.22;;;;;;;0.33;48.53;100557.25;7633356;32;39290;-76
2021/12/21 04:31:04;;;;;;;6.35;3.85;;;;;;;0.54;47.38;100555.66;7633240;32;39747;-77
2021/12/21 04:35:21;;;;;;;3.67;3.30;;;;;;;0.64;46.79;100558.87;7633328;32;38170;-77
2021/12/21 04:40:03;;;;;;;5.85;3.65;;;;;;;0.64;47.22;100558.03;7619825;32;38756;-77
2021/12/21 04:44:16;;;;;;;4.32;3.47;;;;;;;0.61;48.01;100559.25;7633081;32;39381;-76
2021/12/21 04:48:32;;;;;;;3.62;3.33;;;;;;;0.54;48.33;100567.22;7633146;32;40149;-76
2021/12/21 04:52:49;;;;;;;3.72;3.30;;;;;;;0.59;48.33;100557.75;7619655;32;37915;-76
2021/12/21 04:57:05;;;;;;;4.37;3.75;;;;;;;0.43;48.60;100564.16;7633066;32;37173;-75
2021/12/21 05:01:21;;;;;;;3.90;3.55;;;;;;;0.32;49.02;100563.59;7632883;32;39366;-76
2021/12/21 05:05:38;;;;;;;4.53;3.58;;;;;;;0.37;48.77;100561.19;7632929;32;39918;-76
2021/12/21 05:10:00;;;;;;;4.28;3.50;;;;;;;0.55;48.09;100562.66;7632646;32;37864;-75
2021/12/21 05:14:16;;;;;;;3.97;3.58;;;;;;;0.58;47.95;100556.09;7632887;32;37392;-74
2021/12/21 05:18:34;;;;;;;4.78;3.50;;;;;;;0.59;47.84;100563.97;7632736;32;39993;-76
2021/12/21 05:22:50;;;;;;;5.57;4.00;;;;;;;0.32;48.75;100568.97;7632755;32;40001;-77
2021/12/21 05:27:06;;;;;;;3.80;3.50;;;;;;;0.32;48.91;100568.16;7632622;32;38788;-76
2021/12/21 05:31:22;;;;;;;5.22;3.70;;;;;;;0.15;49.24;100575.53;7632488;32;37885;-76
2021/12/21 05:35:39;;;;;;;4.35;3.80;;;;;;;0.10;48.34;100591.34;7632729;32;40060;-76
2021/12/21 05:40:09;;;;;;;7.43;3.90;;;;;;;0.31;47.90;100583.41;7632408;32;39982;-76
2021/12/21 05:44:26;;;;;;;3.85;3.30;;;;;;;0.08;49.16;100590.72;7632419;32;38633;-76
2021/12/21 05:48:42;;;;;;;5.95;3.70;;;;;;;-0.01;49.70;100585.41;7632542;32;37834;-76
2021/12/21 05:52:58;;;;;;;3.50;3.20;;;;;;;0.17;48.83;100586.91;7632384;32;39498;-76
2021/12/21 05:57:14;;;;;;;4.20;3.72;;;;;;;0.32;48.53;100582.38;7632265;32;39958;-78
2021/12/21 06:01:32;;;;;;;5.37;4.10;;;;;;;0.22;47.19;100595.25;7632152;32;37879;-76
2021/12/21 06:05:48;;;;;;;9.00;4.03;;;;;;;0.13;48.46;100615.12;7632249;32;38650;-77
2021/12/21 06:10:16;;;;;;;4.37;3.92;;;;;;;0.05;49.13;100621.38;7632275;32;40051;-76
2021/12/21 06:28:25;;;;;;;8.00;5.25;;;;;;;0.06;50.40;100651.72;7631992;32;40569;-76
2021/12/21 06:32:42;;;;;;;7.68;5.05;;;;;;;0.10;51.28;100640.44;7632020;32;40029;-77
2021/12/21 06:36:58;;;;;;;9.32;5.37;;;;;;;0.02;52.05;100653.94;7631818;32;37969;-77
2021/12/21 06:41:14;;;;;;;9.02;5.62;;;;;;;-0.05;52.16;100651.16;7631761;32;37404;-76
2021/12/21 06:54:32;;;;;;;6.87;4.80;;;;;;;0.13;51.62;100663.38;7631543;32;38662;-76
2021/12/21 06:58:49;;;;;;;8.93;5.47;;;;;;;0.03;52.04;100654.75;7631443;32;37076;-77
2021/12/21 07:03:05;;;;;;;8.50;5.28;;;;;;;0.04;50.95;100662.62;7631454;32;40164;-77
2021/12/21 07:07:21;;;;;;;6.32;4.45;;;;;;;0.13;50.19;100660.72;7631341;32;40809;-76
2021/12/21 07:11:44;;;;;;;8.70;5.43;;;;;;;0.01;50.13;100668.34;7631130;32;37886;-77
2021/12/21 07:20:36;;;;;;;8.10;5.43;;;;;;;-0.10;51.66;100688.37;7631081;32;39116;-77
2021/12/21 07:24:52;;;;;;;6.50;4.85;;;;;;;-0.06;51.87;100689.69;7631066;32;40812;-77
2021/12/21 07:29:08;;;;;;;9.10;5.07;;;;;;;0.22;51.10;100688.28;7653683;32;38766;-75
2021/12/21 07:33:24;;;;;;;9.52;5.43;;;;;;;0.50;50.34;100691.19;7660068;32;36969;-76
2021/12/21 07:37:40;;;;;;;9.55;5.07;;;;;;;0.54;50.09;100695.19;7660156;32;40022;-76
2021/12/21 07:41:57;;;;;;;7.80;5.25;;;;;;;0.88;54.96;100691.09;7660141;32;40205;-76
2021/12/21 07:46:13;;;;;;;11.12;5.37;;;;;;;1.01;49.54;100677.84;7660040;32;38796;-77
2021/12/21 07:50:29;;;;;;;14.27;6.37;;;;;;;0.34;47.96;100695.69;7660062;32;38335;-77
2021/12/21 07:54:46;;;;;;;10.65;6.47;;;;;;;1.05;48.95;100684.53;7660009;32;40069;-79
2021/12/21 07:59:04;;;;;;;11.45;6.03;;;;;;;1.26;47.72;100681.06;7659803;32;40267;-80
2021/12/21 08:03:21;;;;;;;16.02;7.30;;;;;;;1.23;47.93;100678.75;7659696;32;38628;-78
2021/12/21 08:08:09;;;;;;;12.68;6.95;;;;;;;1.43;47.79;100678.13;7659825;32;37985;-79
2021/12/21 08:12:17;;;;;;;14.87;7.43;;;;;;;1.39;48.94;100685.75;7659880;32;40121;-78
2021/12/21 08:16:33;;;;;;;10.45;6.05;;;;;;;1.63;47.84;100691.78;7659837;32;39705;-79
2021/12/21 08:20:50;;;;;;;12.27;6.50;;;;;;;1.74;48.36;100685.88;7646162;32;37841;-77
2021/12/21 08:25:06;;;;;;;9.75;6.20;;;;;;;1.62;55.87;100684.72;7646137;32;37888;-80
2021/12/21 08:29:22;;;;;;;12.75;7.12;;;;;;;1.72;49.03;100682.56;7659470;32;39394;-76
2021/12/21 08:33:40;;;;;;;15.48;7.50;;;;;;;1.77;49.79;100688.19;7659548;32;39975;-76
2021/12/21 08:38:07;;;;;;;11.30;5.95;;;;;;;2.29;48.80;100682.66;7659453;32;38735;-76
2021/12/21 08:42:25;;;;;;;10.50;5.95;;;;;;;2.54;48.14;100685.75;7631371;32;38362;-73
2021/12/21 08:46:41;;;;;;;13.40;6.70;;;;;;;2.56;48.31;100681.81;7647926;32;39099;-74
2021/12/21 08:50:57;;;;;;;12.35;6.20;;;;;;;2.61;48.39;100684.75;7684512;32;40589;-73
2021/12/21 08:55:17;;;;;;;11.57;6.40;;;;;;;2.90;48.38;100673.91;7684537;32;38441;-73
2021/12/21 08:59:33;;;;;;;9.98;6.10;;;;;;;2.52;48.51;100685.94;7683174;32;37676;-73
2021/12/21 09:03:50;;;;;;;9.52;5.65;;;;;;;2.78;49.37;100697.91;7684119;32;39007;-77
2021/12/21 09:08:07;;;;;;;9.98;5.70;;;;;;;2.73;49.38;100705.75;7671686;32;40770;-77
2021/12/21 09:12:23;;;;;;;10.98;6.30;;;;;;;2.86;49.11;100711.19;7685154;32;37702;-78
2021/12/21 09:16:39;;;;;;;11.50;5.78;;;;;;;2.07;50.60;100712.28;7685174;32;37177;-77
2021/12/21 09:20:55;;;;;;;12.90;6.47;;;;;;;2.52;49.97;100725.47;7685314;32;39072;-78
2021/12/21 09:25:13;;;;;;;9.35;6.03;;;;;;;2.19;50.72;100720.62;7685325;32;39993;-76
2021/12/21 09:29:29;;;;;;;10.40;6.25;;;;;;;2.03;51.69;100711.81;7684989;32;38053;-78
2021/12/21 09:33:45;;;;;;;11.18;7.20;;;;;;;2.25;51.48;100712.63;7685215;32;38210;-78
2021/12/21 09:38:01;;;;;;;11.02;7.32;;;;;;;1.95;52.83;100708.44;7685243;32;39366;-77
2021/12/21 09:42:19;;;;;;;12.75;6.25;;;;;;;1.94;53.63;100717.53;7685127;32;40155;-77
2021/12/21 09:46:36;;;;;;;11.12;6.65;;;;;;;2.41;53.99;100708.81;7685169;32;36836;-77
2021/12/21 09:50:52;;;;;;;9.95;5.75;;;;;;;2.59;52.98;100710.22;7685086;32;38060;-77
2021/12/21 09:55:11;;;;;;;14.30;6.68;;;;;;;3.38;50.98;100688.22;7676104;32;39451;-78
2021/12/21 09:59:27;;;;;;;10.10;5.80;;;;;;;3.85;49.79;100692.91;7658410;32;39686;-78
2021/12/21 10:03:43;;;;;;;11.15;5.70;;;;;;;4.00;49.70;100680.06;7658424;32;38055;-77
2021/12/21 10:08:03;;;;;;;12.57;8.15;;;;;;;4.28;48.39;100676.31;7658458;32;37968;-78
2021/12/21 10:12:30;;;;;;;10.70;7.37;;;;;;;4.74;47.22;100661.06;7658226;32;40174;-78
2021/12/21 10:16:46;;;;;;;11.77;6.97;;;;;;;5.08;46.74;100665.31;7658318;32;41065;-78
2021/12/21 10:21:07;;;;;;;10.18;5.82;;;;;;;5.43;45.07;100659.53;7657041;32;38575;-78
2021/12/21 10:25:25;;;;;;;8.70;5.43;;;;;;;5.44;45.18;100647.69;7658110;32;36847;-78
2021/12/21 10:29:46;;;;;;;13.95;7.05;;;;;;;5.79;43.48;100648.06;7657993;32;39238;-78
2021/12/21 10:34:11;;;;;;;10.23;5.82;;;;;;;6.42;43.09;100650.94;7644310;32;40913;-78
2021/12/21 10:38:51;;;;;;;15.45;7.78;;;;;;;6.30;42.18;100646.22;7657995;32;37766;-78
2021/12/21 10:43:09;;;;;;;15.00;8.60;;;;;;;6.38;42.19;100642.41;7657990;32;37223;-78
2021/12/21 10:47:26;;;;;;;9.73;5.75;;;;;;;5.61;43.12;100639.88;7658112;32;39598;-77
2021/12/21 10:51:54;;;;;;;11.10;5.87;;;;;;;4.96;45.18;100631.91;7657892;32;41110;-76
2021/12/21 10:56:13;;;;;;;8.68;5.57;;;;;;;4.69;45.57;100637.37;7657681;32;37903;-78
2021/12/21 11:00:31;;;;;;;8.43;5.30;;;;;;;4.32;46.06;100640.56;7657352;32;37280;-82
2021/12/21 11:04:53;;;;;;;8.15;4.47;;;;;;;5.26;45.44;100619.50;7657161;32;39324;-78
2021/12/21 11:09:11;;;;;;;5.78;3.28;;;;;;;6.67;40.58;100618.34;7651987;32;39880;-77
2021/12/21 11:13:27;;;;;;;5.65;3.70;;;;;;;6.96;39.00;100614.03;7656828;32;37645;-76
2021/12/21 11:17:43;;;;;;;5.95;3.85;;;;;;;7.53;38.19;100606.37;7656615;32;35364;-77
2021/12/21 11:22:00;;;;;;;7.37;3.97;;;;;;;8.15;35.85;100596.22;7644900;32;39414;-77
2021/12/21 11:26:17;;;;;;;6.15;3.80;;;;;;;7.62;36.89;100592.47;7643280;32;39992;-78
2021/12/21 11:30:34;;;;;;;5.65;3.75;;;;;;;7.63;36.84;100580.56;7627179;32;39113;-77
2021/12/21 11:39:30;;;;;;;5.90;3.80;;;;;;;7.02;36.17;100583.31;7640240;32;39388;-76
2021/12/21 11:44:36;;;;;;;6.85;4.05;;;;;;;7.21;36.83;100583.25;7655019;32;41749;-76
2021/12/21 11:49:16;;;;;;;5.03;3.50;;;;;;;7.08;36.93;100576.97;7610522;32;37968;-75
2021/12/21 11:53:32;;;;;;;8.80;4.03;;;;;;;7.76;36.20;100576.81;7642793;32;37126;-75
2021/12/21 11:57:55;;;;;;;4.93;3.53;;;;;;;7.64;36.09;100572.19;7656047;32;39308;-75
2021/12/21 12:02:11;;;;;;;7.35;3.92;;;;;;;7.65;36.07;100579.25;7655415;32;39612;-75
2021/12/21 12:06:42;;;;;;;7.05;3.72;;;;;;;7.34;37.16;100573.03;7655726;32;37809;-75
2021/12/21 12:11:00;;;;;;;5.72;3.42;;;;;;;7.46;35.78;100573.09;7666073;32;37092;-80
2021/12/21 12:15:21;;;;;;;;;;;;;;;7.96;34.47;100565.63;7655603;32;39858;-79
2021/12/21 12:19:38;;;;;;;5.62;3.72;;;;;;;7.72;33.32;100571.84;7660167;32;39943;-78
2021/12/21 12:24:04;;;;;;;4.93;3.30;;;;;;;7.39;33.90;100566.94;7658716;32;37881;-77
2021/12/21 12:28:32;;;;;;;5.65;3.90;;;;;;;8.63;33.59;100557.91;7669874;32;38278;-79
2021/12/21 12:33:01;;;;;;;7.85;4.35;;;;;;;9.21;32.70;100560.69;7684853;32;39402;-79
2021/12/21 12:37:24;;;;;;;6.85;3.65;;;;;;;9.14;33.28;100546.38;7660731;32;40638;-78
2021/12/21 12:41:46;;;;;;;7.95;4.32;;;;;;;9.33;32.68;100553.28;7658023;32;38757;-75
2021/12/21 12:46:06;;;;;;;5.82;4.03;;;;;;;8.39;33.37;100548.13;7659561;32;37849;-75
2021/12/21 12:50:27;;;;;;;6.97;4.43;;;;;;;8.52;34.04;100552.50;7659208;32;39350;-76
2021/12/21 12:54:45;;;;;;;8.35;4.37;;;;;;;9.00;32.06;100538.53;7659170;32;40544;-76
2021/12/21 12:59:05;;;;;;;6.32;3.40;;;;;;;8.99;32.97;100542.31;7659187;32;37564;-79
2021/12/21 13:03:30;;;;;;;8.90;4.30;;;;;;;9.57;31.79;100542.22;7658888;32;37906;-79
2021/12/21 13:07:46;;;;;;;8.30;4.20;;;;;;;9.23;32.60;100553.09;7658973;32;39009;-79
2021/12/21 13:12:02;;;;;;;5.00;3.10;;;;;;;9.83;31.25;100561.72;7659000;32;40690;-79
2021/12/21 13:16:23;;;;;;;5.95;3.42;;;;;;;10.68;29.46;100551.50;7659024;32;38031;-80
2021/12/21 13:20:41;;;;;;;7.50;3.50;;;;;;;11.75;27.23;100553.69;7658928;32;37120;-80
2021/12/21 13:24:57;;;;;;;5.30;2.95;;;;;;;11.97;27.21;100551.69;7659088;32;39105;-79
2021/12/21 13:29:16;;;;;;;5.78;3.30;;;;;;;13.02;25.42;100550.03;7658510;32;39654;-78
2021/12/21 13:33:33;;;;;;;6.20;3.28;;;;;;;15.13;22.08;100533.28;7657628;32;38467;-79
2021/12/21 13:37:49;;;;;;;5.90;3.20;;;;;;;17.24;19.49;100527.25;7645395;32;37850;-80
2021/12/21 13:42:19;;;;;;;6.65;3.25;;;;;;;17.08;18.88;100531.34;7656213;32;39206;-80
2021/12/21 13:46:35;;;;;;;7.85;3.37;;;;;;;18.15;18.52;100527.97;7656008;32;40487;-79
2021/12/21 13:50:51;;;;;;;6.28;3.17;;;;;;;18.87;17.27;100532.91;7657451;32;38400;-80
2021/12/21 13:55:19;;;;;;;10.63;4.00;;;;;;;18.93;17.10;100533.59;7658012;32;37812;-79
2021/12/21 13:59:36;;;;;;;8.27;4.53;;;;;;;16.18;20.27;100550.31;7658709;32;39812;-79
2021/12/21 14:03:57;;;;;;;10.02;4.00;;;;;;;13.86;23.15;100556.16;7658534;32;39872;-78
2021/12/21 14:08:14;;;;;;;7.75;3.75;;;;;;;12.08;25.74;100562.69;7658455;32;38013;-78
2021/12/21 14:12:31;;;;;;;8.20;3.37;;;;;;;10.95;27.67;100569.81;7658469;32;37180;-78
2021/12/21 14:16:52;;;;;;;8.77;4.15;;;;;;;9.90;29.47;100570.53;7658453;32;40151;-78
2021/12/21 14:21:12;;;;;;;5.43;3.35;;;;;;;9.06;31.13;100563.09;7658278;32;40500;-77
2021/12/21 14:25:28;;;;;;;7.00;4.47;;;;;;;8.83;31.62;100570.28;7658377;32;37808;-78
2021/12/21 14:29:45;;;;;;;12.50;5.72;;;;;;;7.90;33.35;100578.25;7658025;32;37114;-78
2021/12/21 14:34:02;;;;;;;13.82;6.47;;;;;;;7.40;34.76;100584.88;7658178;32;39118;-78
2021/12/21 14:38:18;;;;;;;15.15;6.00;;;;;;;7.56;34.69;100582.56;7658050;32;40004;-77
2021/12/21 14:42:34;;;;;;;10.05;5.45;;;;;;;7.45;35.02;100590.44;7657254;32;37828;-77
2021/12/21 14:47:21;;;;;;;8.07;5.12;;;;;;;6.80;36.36;100590.28;7657968;32;37088;-77
2021/12/21 14:51:51;;;;;;;9.48;5.37;;;;;;;6.41;37.72;100586.97;7657853;32;37827;-78
2021/12/21 14:56:08;;;;;;;7.40;5.00;;;;;;;5.84;39.00;100593.28;7657889;32;40735;-78
2021/12/21 15:00:30;;;;;;;7.20;4.72;;;;;;;5.34;40.26;100598.66;7657634;32;37998;-77
2021/12/21 15:04:46;;;;;;;9.35;4.80;;;;;;;4.95;41.28;100604.06;7657801;32;37093;-76
2021/12/21 15:09:03;;;;;;;12.00;4.93;;;;;;;4.66;41.89;100608.12;7657634;32;40093;-77
2021/12/21 15:13:25;;;;;;;10.98;6.03;;;;;;;4.58;42.08;100600.22;7657568;32;38915;-76
2021/12/21 15:17:41;;;;;;;13.25;7.18;;;;;;;4.39;42.13;100610.03;7657426;32;37562;-78
2021/12/21 15:21:57;;;;;;;16.25;10.00;;;;;;;4.28;43.01;100600.72;7657172;32;38154;-78
2021/12/21 15:26:14;;;;;;;17.55;10.30;;;;;;;4.05;43.38;100612.81;7657167;32;40131;-77
2021/12/21 15:30:30;;;;;;;19.55;9.88;;;;;;;4.14;43.41;100605.31;7656864;32;40873;-78
2021/12/21 15:34:46;;;;;;;15.85;8.85;;;;;;;3.92;44.29;100618.19;7656552;32;38777;-76
2021/12/21 15:39:04;;;;;;;14.13;8.02;;;;;;;3.64;44.94;100615.66;7643219;32;37272;-76
2021/12/21 15:43:30;;;;;;;16.85;9.88;;;;;;;3.61;44.98;100621.50;7656671;32;39891;-76
2021/12/21 15:47:47;;;;;;;17.33;10.40;;;;;;;3.60;44.33;100617.94;7656709;32;40971;-77
2021/12/21 15:52:05;;;;;;;16.40;8.45;;;;;;;3.37;45.03;100629.94;7648597;32;37997;-77
2021/12/21 15:56:22;;;;;;;14.95;6.78;;;;;;;3.63;44.24;100622.12;7641561;32;37955;-77
2021/12/21 16:00:39;;;;;;;15.15;6.25;;;;;;;3.57;43.76;100626.47;7658845;32;39403;-78
2021/12/21 16:04:55;;;;;;;10.05;6.28;;;;;;;3.38;43.98;100634.31;7659358;32;40006;-78
2021/12/21 16:09:12;;;;;;;10.73;6.22;;;;;;;3.24;44.63;100632.59;7659948;32;37982;-77
2021/12/21 16:13:29;;;;;;;11.40;6.37;;;;;;;3.29;44.17;100646.28;7659675;32;37833;-77
2021/12/21 16:17:45;;;;;;;13.70;5.95;;;;;;;3.28;44.37;100641.94;7659640;32;40155;-76
2021/12/21 16:22:02;;;;;;;12.15;6.28;;;;;;;3.27;45.21;100645.66;7659570;32;40109;-77
2021/12/21 16:26:27;;;;;;;11.23;6.22;;;;;;;3.37;44.53;100643.41;7659556;32;37823;-78
2021/12/21 16:30:54;;;;;;;11.48;5.97;;;;;;;3.39;44.90;100652.12;7645895;32;36811;-77
2021/12/21 16:35:10;;;;;;;14.73;5.97;;;;;;;3.34;45.38;100648.38;7659778;32;39353;-77
2021/12/21 16:39:26;;;;;;;8.43;5.50;;;;;;;3.12;46.07;100653.06;7659318;32;40806;-78
2021/12/21 16:43:42;;;;;;;8.68;5.68;;;;;;;2.91;47.24;100644.09;7659062;32;38603;-77
2021/12/21 16:48:01;;;;;;;10.80;5.82;;;;;;;2.89;47.05;100648.84;7659403;32;37210;-76
2021/12/21 16:52:17;;;;;;;9.77;5.90;;;;;;;2.77;46.94;100645.06;7658951;32;39348;-78
2021/12/21 16:56:35;;;;;;;9.75;5.57;;;;;;;2.61;47.47;100643.53;7659131;32;40562;-77
2021/12/21 17:00:54;;;;;;;7.95;4.90;;;;;;;2.67;47.10;100647.28;7658988;32;37926;-77
2021/12/21 17:05:10;;;;;;;8.70;5.30;;;;;;;2.49;47.86;100642.44;7658519;32;37092;-77
2021/12/21 17:09:28;;;;;;;8.52;5.12;;;;;;;2.52;47.64;100645.56;7659143;32;40133;-77
2021/12/21 17:13:46;;;;;;;10.10;5.53;;;;;;;2.72;47.03;100640.25;7658940;32;39998;-77
2021/12/21 17:18:06;;;;;;;13.30;6.62;;;;;;;2.68;46.96;100646.25;7658698;32;37953;-77
2021/12/21 17:22:22;;;;;;;8.93;5.50;;;;;;;2.44;47.77;100656.47;7645123;32;37110;-77
2021/12/21 17:26:38;;;;;;;8.90;5.43;;;;;;;2.78;46.76;100650.25;7658535;32;39301;-77
2021/12/21 17:30:55;;;;;;;15.32;8.32;;;;;;;2.57;47.32;100656.56;7658358;32;40841;-77
2021/12/21 17:35:13;;;;;;;13.98;8.02;;;;;;;2.50;47.48;100655.69;7658550;32;37875;-78
2021/12/21 17:39:29;;;;;;;11.40;6.60;;;;;;;2.56;47.53;100662.12;7658494;32;37266;-77
2021/12/21 17:43:46;;;;;;;13.07;7.40;;;;;;;2.42;47.79;100662.03;7658392;32;40012;-78
2021/12/21 17:48:02;;;;;;;13.23;6.62;;;;;;;2.34;48.27;100664.88;7658398;32;40710;-78
2021/12/21 17:52:19;;;;;;;14.13;6.37;;;;;;;2.27;48.65;100664.00;7658658;32;37957;-79
2021/12/21 17:56:35;;;;;;;19.25;8.02;;;;;;;2.04;49.60;100664.25;7658561;32;38252;-78
2021/12/21 18:00:51;;;;;;;14.65;8.82;;;;;;;1.88;50.28;100663.50;7658290;32;38982;-79
2021/12/21 18:05:08;;;;;;;17.60;9.55;;;;;;;1.93;49.95;100667.44;7657378;32;39995;-79
2021/12/21 18:09:24;;;;;;;20.30;9.60;;;;;;;1.75;50.58;100674.13;7658362;32;37986;-79
2021/12/21 18:13:41;;;;;;;19.50;10.75;;;;;;;1.93;49.99;100667.44;7658251;32;37550;-80
2021/12/21 18:17:59;;;;;;;33.55;14.68;;;;;;;1.66;50.77;100672.59;7657127;32;40425;-80
2021/12/21 18:22:16;;;;;;;17.52;10.07;;;;;;;1.74;50.53;100677.81;7644834;32;38637;-78
2021/12/21 18:26:33;;;;;;;21.35;10.50;;;;;;;1.50;51.20;100679.88;7656258;32;38795;-79
2021/12/21 18:30:49;;;;;;;19.20;9.82;;;;;;;1.62;51.26;100676.66;7656246;32;36933;-80
2021/12/21 18:35:06;;;;;;;15.05;9.85;;;;;;;1.52;51.85;100681.53;7656106;32;39287;-79
2021/12/21 18:39:25;;;;;;;16.23;9.10;;;;;;;1.59;52.03;100687.81;7655983;32;39982;-79
2021/12/21 18:43:41;;;;;;;20.73;10.73;;;;;;;1.60;51.81;100689.47;7656215;32;37968;-79
2021/12/21 18:47:58;;;;;;;19.48;9.35;;;;;;;1.57;51.37;100695.22;7655647;32;37245;-80
2021/12/21 18:52:16;;;;;;;15.43;9.48;;;;;;;1.61;50.72;100693.84;7655584;32;39423;-79
2021/12/21 18:56:32;;;;;;;21.58;9.93;;;;;;;1.52;50.57;100694.97;7653918;32;39864;-80
2021/12/21 19:00:50;;;;;;;17.50;9.82;;;;;;;1.36;51.31;100698.72;7655577;32;37886;-79
2021/12/21 19:05:06;;;;;;;18.58;9.93;;;;;;;1.15;52.29;100703.00;7655764;32;37178;-79
2021/12/21 19:09:22;;;;;;;22.52;12.13;;;;;;;1.21;51.91;100690.69;7655417;32;39377;-78
2021/12/21 19:13:39;;;;;;;20.10;11.68;;;;;;;1.33;51.61;100699.09;7655112;32;40890;-79
2021/12/21 19:17:55;;;;;;;26.90;13.40;;;;;;;1.45;50.83;100693.06;7655181;32;38891;-79
2021/12/21 19:22:11;;;;;;;26.12;14.50;;;;;;;1.11;51.56;100699.88;7653146;32;37328;-80
2021/12/21 19:26:28;;;;;;;22.58;11.18;;;;;;;1.06;51.76;100699.59;7655585;32;40161;-79
2021/12/21 19:30:45;;;;;;;26.23;11.38;;;;;;;0.94;52.15;100701.09;7658010;32;39952;-78
2021/12/21 19:35:02;;;;;;;21.12;11.80;;;;;;;0.80;52.72;100705.47;7658071;32;38518;-78
2021/12/21 19:39:18;;;;;;;18.00;10.55;;;;;;;0.89;52.63;100711.56;7658180;32;37043;-79
2021/12/21 19:43:34;;;;;;;26.20;11.63;;;;;;;0.54;53.29;100728.19;7658022;32;39303;-80
2021/12/21 19:47:51;;;;;;;22.33;11.48;;;;;;;0.67;53.38;100721.37;7656713;32;38615;-79
2021/12/21 19:52:07;;;;;;;25.70;11.70;;;;;;;0.75;52.87;100714.06;7660096;32;38069;-79
2021/12/21 19:56:25;;;;;;;24.77;13.15;;;;;;;0.59;53.59;100716.94;7660094;32;37280;-79
2021/12/21 20:00:42;;;;;;;22.20;12.02;;;;;;;0.62;53.72;100716.56;7646596;32;39798;-79
2021/12/21 20:05:02;;;;;;;18.85;10.13;;;;;;;0.50;53.83;100720.69;7659738;32;39297;-79
2021/12/21 20:09:21;;;;;;;16.08;10.05;;;;;;;0.54;53.45;100730.06;7659883;32;38553;-78
2021/12/21 20:13:37;;;;;;;18.30;10.73;;;;;;;0.53;53.34;100725.69;7659637;32;37280;-78
2021/12/21 20:17:54;;;;;;;20.83;11.00;;;;;;;0.42;54.28;100735.03;7657555;32;39851;-78
2021/12/21 20:22:10;;;;;;;20.17;11.88;;;;;;;0.56;53.83;100730.72;7657439;32;40705;-78
2021/12/21 20:26:26;;;;;;;24.17;11.80;;;;;;;0.46;54.20;100732.81;7643793;32;38830;-77
2021/12/21 20:30:44;;;;;;;23.65;11.90;;;;;;;0.23;55.14;100736.38;7657193;32;38040;-78
2021/12/21 20:35:00;;;;;;;22.70;11.57;;;;;;;0.50;54.13;100736.78;7657314;32;39345;-79
2021/12/21 20:39:17;;;;;;;20.85;12.52;;;;;;;0.58;53.12;100739.41;7654702;32;40730;-78
2021/12/21 20:43:33;;;;;;;23.17;12.85;;;;;;;0.20;54.64;100742.09;7657062;32;38055;-78
2021/12/21 20:47:49;;;;;;;22.70;12.55;;;;;;;0.18;55.96;100744.12;7657339;32;37175;-79
2021/12/21 20:52:05;;;;;;;23.62;12.60;;;;;;;0.37;54.86;100743.62;7657096;32;39142;-78
2021/12/21 20:56:22;;;;;;;23.05;12.82;;;;;;;0.40;54.50;100745.13;7656848;32;39882;-78
2021/12/21 21:00:41;;;;;;;23.05;12.37;;;;;;;0.59;53.59;100742.91;7656700;32;37968;-78
2021/12/21 21:04:57;;;;;;;19.25;10.82;;;;;;;0.43;53.62;100738.53;7656848;32;38013;-79
2021/12/21 21:09:14;;;;;;;17.90;10.43;;;;;;;0.35;53.89;100744.84;7656938;32;39907;-78
2021/12/21 21:13:30;;;;;;;19.75;9.85;;;;;;;0.49;53.50;100741.34;7656907;32;40782;-79